createdAt,value
2023-05-17T00:00:59.670Z,94391.00
2023-05-17T00:01:59.692Z,94393.00
2023-05-17T00:02:59.711Z,94393.00
2023-05-17T00:03:59.705Z,94395.00
2023-05-17T00:04:59.694Z,94397.00
2023-05-17T00:05:59.670Z,94397.00
2023-05-17T00:06:59.650Z,94397.00
2023-05-17T00:07:59.653Z,94397.00
2023-05-17T00:08:59.637Z,94399.00
2023-05-17T00:09:59.629Z,94401.00
2023-05-17T00:10:59.612Z,94401.00
2023-05-17T00:11:59.598Z,94403.00
2023-05-17T00:12:59.609Z,94399.00
2023-05-17T00:13:59.715Z,94403.00
2023-05-17T00:15:00.563Z,94401.00
2023-05-17T00:15:59.602Z,94404.00
2023-05-17T00:16:59.595Z,94408.00
2023-05-17T00:17:59.651Z,94410.00
2023-05-17T00:18:59.755Z,94412.00
2023-05-17T00:19:59.605Z,94412.00
2023-05-17T00:20:59.587Z,94412.00
2023-05-17T00:21:59.660Z,94410.00
2023-05-17T00:22:59.656Z,94416.00
2023-05-17T00:23:59.665Z,94418.00
2023-05-17T00:24:59.778Z,94416.00
2023-05-17T00:25:59.694Z,94420.00
2023-05-17T00:26:59.727Z,94418.00
2023-05-17T00:27:59.720Z,94420.00
2023-05-17T00:28:59.747Z,94420.00
2023-05-17T00:29:59.794Z,94422.00
2023-05-17T00:30:59.798Z,94422.00
2023-05-17T00:31:59.805Z,94422.00
2023-05-17T00:32:59.839Z,94418.00
2023-05-17T00:33:59.878Z,94420.00
2023-05-17T00:35:00.064Z,94422.00
2023-05-17T00:35:59.880Z,94418.00
2023-05-17T00:36:59.900Z,94418.00
2023-05-17T00:37:59.954Z,94422.00
2023-05-17T00:38:59.931Z,94422.00
2023-05-17T00:39:59.942Z,94418.00
2023-05-17T00:40:59.947Z,94424.00
2023-05-17T00:41:59.959Z,94424.00
2023-05-17T00:43:00.004Z,94426.00
2023-05-17T00:43:59.991Z,94422.00
2023-05-17T00:44:59.998Z,94422.00
2023-05-17T00:46:00.039Z,94422.00
2023-05-17T00:47:00.106Z,94424.00
2023-05-17T00:48:00.155Z,94426.00
2023-05-17T00:49:00.079Z,94426.00
2023-05-17T00:50:00.098Z,94428.00
2023-05-17T00:51:00.178Z,94430.00
2023-05-17T00:52:00.122Z,94430.00
2023-05-17T00:53:00.145Z,94426.00
2023-05-17T00:54:00.186Z,94424.00
2023-05-17T00:55:00.180Z,94420.00
2023-05-17T00:56:00.177Z,94426.00
2023-05-17T00:57:00.223Z,94424.00
2023-05-17T00:58:00.220Z,94424.00
2023-05-17T00:59:00.249Z,94424.00
2023-05-17T01:00:00.255Z,94422.00
2023-05-17T01:01:00.277Z,94426.00
2023-05-17T01:02:00.290Z,94424.00
2023-05-17T01:03:00.350Z,94428.00
2023-05-17T01:04:00.382Z,94420.00
2023-05-17T01:05:00.444Z,94424.00
2023-05-17T01:06:00.358Z,94424.00
2023-05-17T01:07:00.440Z,94424.00
2023-05-17T01:08:00.408Z,94426.00
2023-05-17T01:09:00.422Z,94426.00
2023-05-17T01:10:00.426Z,94428.00
2023-05-17T01:11:00.452Z,94426.00
2023-05-17T01:12:00.476Z,94424.00
2023-05-17T01:13:00.558Z,94428.00
2023-05-17T01:14:00.546Z,94426.00
2023-05-17T01:15:00.589Z,94428.00
2023-05-17T01:16:00.579Z,94426.00
2023-05-17T01:17:00.627Z,94424.00
2023-05-17T01:18:00.759Z,94426.00
2023-05-17T01:19:00.730Z,94422.00
2023-05-17T01:20:00.822Z,94428.00
2023-05-17T01:21:00.706Z,94428.00
2023-05-17T01:22:00.717Z,94426.00
2023-05-17T01:23:00.791Z,94430.00
2023-05-17T01:24:00.757Z,94434.00
2023-05-17T01:25:00.787Z,94434.00
2023-05-17T01:26:00.802Z,94430.00
2023-05-17T01:27:00.833Z,94434.00
2023-05-17T01:28:00.849Z,94430.00
2023-05-17T01:29:00.878Z,94434.00
2023-05-17T01:30:00.892Z,94434.00
2023-05-17T01:31:00.907Z,94430.00
2023-05-17T01:32:00.922Z,94432.00
2023-05-17T01:33:01.055Z,94428.00
2023-05-17T01:34:01.038Z,94430.00
2023-05-17T01:35:01.034Z,94428.00
2023-05-17T01:36:01.002Z,94432.00
2023-05-17T01:37:01.034Z,94434.00
2023-05-17T01:38:01.104Z,94434.00
2023-05-17T01:39:01.138Z,94432.00
2023-05-17T01:40:01.112Z,94434.00
2023-05-17T01:41:01.124Z,94430.00
2023-05-17T01:42:01.154Z,94430.00
2023-05-17T01:43:01.155Z,94432.00
2023-05-17T01:44:01.187Z,94430.00
2023-05-17T01:45:01.228Z,94434.00
2023-05-17T01:46:01.245Z,94434.00
2023-05-17T01:47:01.259Z,94432.00
2023-05-17T01:48:01.350Z,94436.00
2023-05-17T01:49:01.352Z,94440.00
2023-05-17T01:50:01.344Z,94440.00
2023-05-17T01:51:01.350Z,94438.00
2023-05-17T01:52:01.386Z,94436.00
2023-05-17T01:53:01.432Z,94444.00
2023-05-17T01:54:01.462Z,94442.00
2023-05-17T01:55:01.473Z,94444.00
2023-05-17T01:56:01.508Z,94444.00
2023-05-17T01:57:01.533Z,94442.00
2023-05-17T01:58:01.609Z,94446.00
2023-05-17T01:59:01.599Z,94448.00
2023-05-17T02:00:01.654Z,94448.00
2023-05-17T02:01:01.659Z,94450.00
2023-05-17T02:02:01.672Z,94452.00
2023-05-17T02:03:01.741Z,94450.00
2023-05-17T02:04:01.753Z,94450.00
2023-05-17T02:05:01.825Z,94452.00
2023-05-17T02:06:01.785Z,94452.00
2023-05-17T02:07:01.811Z,94452.00
2023-05-17T02:08:01.892Z,94448.00
2023-05-17T02:09:01.905Z,94446.00
2023-05-17T02:10:01.992Z,94446.00
2023-05-17T02:11:02.108Z,94450.00
2023-05-17T02:12:01.988Z,94450.00
2023-05-17T02:13:02.004Z,94450.00
2023-05-17T02:14:02.075Z,94455.00
2023-05-17T02:15:02.086Z,94454.00
2023-05-17T02:16:02.104Z,94455.00
2023-05-17T02:17:02.209Z,94454.00
2023-05-17T02:18:02.253Z,94457.00
2023-05-17T02:19:02.274Z,94455.00
2023-05-17T02:20:02.242Z,94455.00
2023-05-17T02:21:02.277Z,94455.00
2023-05-17T02:22:02.316Z,94454.00
2023-05-17T02:23:02.357Z,94455.00
2023-05-17T02:24:02.387Z,94455.00
2023-05-17T02:25:02.421Z,94455.00
2023-05-17T02:26:02.436Z,94457.00
2023-05-17T02:27:02.508Z,94463.00
2023-05-17T02:28:02.528Z,94459.00
2023-05-17T02:29:02.562Z,94457.00
2023-05-17T02:30:02.574Z,94457.00
2023-05-17T02:31:02.632Z,94459.00
2023-05-17T02:32:02.623Z,94455.00
2023-05-17T02:33:02.740Z,94461.00
2023-05-17T02:34:02.782Z,94461.00
2023-05-17T02:35:02.714Z,94461.00
2023-05-17T02:36:02.793Z,94463.00
2023-05-17T02:37:02.812Z,94461.00
2023-05-17T02:38:02.847Z,94463.00
2023-05-17T02:39:02.835Z,94469.00
2023-05-17T02:40:02.905Z,94465.00
2023-05-17T02:41:02.907Z,94471.00
2023-05-17T02:42:02.975Z,94471.00
2023-05-17T02:43:03.025Z,94467.00
2023-05-17T02:44:02.973Z,94473.00
2023-05-17T02:45:03.016Z,94471.00
2023-05-17T02:46:03.049Z,94467.00
2023-05-17T02:47:03.071Z,94469.00
2023-05-17T02:48:03.121Z,94471.00
2023-05-17T02:49:03.109Z,94467.00
2023-05-17T02:50:03.134Z,94467.00
2023-05-17T02:51:03.187Z,94471.00
2023-05-17T02:52:03.205Z,94473.00
2023-05-17T02:53:03.272Z,94475.00
2023-05-17T02:54:03.270Z,94479.00
2023-05-17T02:55:03.311Z,94479.00
2023-05-17T02:56:03.360Z,94477.00
2023-05-17T02:57:03.332Z,94479.00
2023-05-17T02:58:03.397Z,94479.00
2023-05-17T02:59:03.524Z,94481.00
2023-05-17T03:00:03.434Z,94483.00
2023-05-17T03:01:03.488Z,94485.00
2023-05-17T03:02:03.493Z,94489.00
2023-05-17T03:03:03.658Z,94491.00
2023-05-17T03:04:03.918Z,94489.00
2023-05-17T03:05:03.562Z,94485.00
2023-05-17T03:06:03.595Z,94487.00
2023-05-17T03:07:05.830Z,94489.00
2023-05-17T03:08:03.642Z,94493.00
2023-05-17T03:09:03.638Z,94495.00
2023-05-17T03:10:03.627Z,94495.00
2023-05-17T03:11:03.614Z,94493.00
2023-05-17T03:12:03.588Z,94491.00
2023-05-17T03:13:03.602Z,94493.00
2023-05-17T03:14:03.585Z,94491.00
2023-05-17T03:15:03.641Z,94489.00
2023-05-17T03:16:03.590Z,94493.00
2023-05-17T03:17:03.552Z,94493.00
2023-05-17T03:18:03.715Z,94493.00
2023-05-17T03:19:03.709Z,94497.00
2023-05-17T03:20:03.557Z,94499.00
2023-05-17T03:21:03.554Z,94497.00
2023-05-17T03:22:03.549Z,94497.00
2023-05-17T03:23:03.540Z,94499.00
2023-05-17T03:24:03.525Z,94501.00
2023-05-17T03:25:03.509Z,94502.00
2023-05-17T03:26:03.525Z,94504.00
2023-05-17T03:27:03.537Z,94504.00
2023-05-17T03:28:03.512Z,94504.00
2023-05-17T03:29:03.476Z,94504.00
2023-05-17T03:30:03.467Z,94504.00
2023-05-17T03:31:03.720Z,94506.00
2023-05-17T03:32:03.452Z,94508.00
2023-05-17T03:33:03.563Z,94510.00
2023-05-17T03:34:03.514Z,94514.00
2023-05-17T03:35:03.433Z,94516.00
2023-05-17T03:36:03.443Z,94518.00
2023-05-17T03:37:03.429Z,94518.00
2023-05-17T03:38:03.415Z,94520.00
2023-05-17T03:39:03.425Z,94520.00
2023-05-17T03:40:03.431Z,94522.00
2023-05-17T03:41:03.401Z,94522.00
2023-05-17T03:42:03.411Z,94524.00
2023-05-17T03:43:03.400Z,94524.00
2023-05-17T03:44:03.378Z,94526.00
2023-05-17T03:45:03.383Z,94526.00
2023-05-17T03:46:03.380Z,94526.00
2023-05-17T03:47:03.431Z,94526.00
2023-05-17T03:48:03.442Z,94528.00
2023-05-17T03:49:03.381Z,94528.00
2023-05-17T03:50:03.345Z,94534.00
2023-05-17T03:51:03.354Z,94530.00
2023-05-17T03:52:03.360Z,94532.00
2023-05-17T03:53:03.356Z,94534.00
2023-05-17T03:54:03.333Z,94538.00
2023-05-17T03:55:03.313Z,94536.00
2023-05-17T03:56:03.334Z,94542.00
2023-05-17T03:57:03.350Z,94542.00
2023-05-17T03:58:03.306Z,94540.00
2023-05-17T03:59:03.331Z,94532.00
2023-05-17T04:00:03.309Z,94536.00
2023-05-17T04:01:03.304Z,94544.00
2023-05-17T04:02:03.273Z,94546.00
2023-05-17T04:03:03.417Z,94544.00
2023-05-17T04:04:03.379Z,94544.00
2023-05-17T04:05:03.366Z,94546.00
2023-05-17T04:06:03.378Z,94546.00
2023-05-17T04:07:03.424Z,94548.00
2023-05-17T04:08:03.429Z,94548.00
2023-05-17T04:09:03.527Z,94548.00
2023-05-17T04:10:03.495Z,94548.00
2023-05-17T04:11:03.530Z,94546.00
2023-05-17T04:12:03.618Z,94549.00
2023-05-17T04:13:03.585Z,94548.00
2023-05-17T04:14:03.615Z,94549.00
2023-05-17T04:15:03.669Z,94549.00
2023-05-17T04:16:03.684Z,94548.00
2023-05-17T04:17:03.757Z,94546.00
2023-05-17T04:18:03.894Z,94551.00
2023-05-17T04:19:03.934Z,94549.00
2023-05-17T04:20:03.846Z,94551.00
2023-05-17T04:21:03.885Z,94551.00
2023-05-17T04:22:03.900Z,94553.00
2023-05-17T04:23:03.957Z,94555.00
2023-05-17T04:24:03.972Z,94553.00
2023-05-17T04:25:04.008Z,94553.00
2023-05-17T04:26:04.040Z,94549.00
2023-05-17T04:27:04.071Z,94549.00
2023-05-17T04:28:04.103Z,94551.00
2023-05-17T04:29:04.156Z,94553.00
2023-05-17T04:30:04.196Z,94555.00
2023-05-17T04:31:04.201Z,94555.00
2023-05-17T04:32:04.248Z,94557.00
2023-05-17T04:33:04.368Z,94557.00
2023-05-17T04:34:04.423Z,94559.00
2023-05-17T04:35:04.419Z,94557.00
2023-05-17T04:36:04.403Z,94559.00
2023-05-17T04:37:04.449Z,94561.00
2023-05-17T04:38:04.466Z,94559.00
2023-05-17T04:39:04.504Z,94561.00
2023-05-17T04:40:04.524Z,94565.00
2023-05-17T04:41:04.594Z,94565.00
2023-05-17T04:42:04.580Z,94565.00
2023-05-17T04:43:04.637Z,94569.00
2023-05-17T04:44:04.655Z,94567.00
2023-05-17T04:45:04.684Z,94569.00
2023-05-17T04:46:04.724Z,94571.00
2023-05-17T04:47:04.742Z,94573.00
2023-05-17T04:48:04.827Z,94575.00
2023-05-17T04:49:05.663Z,94571.00
2023-05-17T04:50:04.895Z,94577.00
2023-05-17T04:51:04.951Z,94581.00
2023-05-17T04:52:06.260Z,94575.00
2023-05-17T04:53:04.953Z,94575.00
2023-05-17T04:54:04.991Z,94577.00
2023-05-17T04:55:05.048Z,94577.00
2023-05-17T04:56:05.068Z,94575.00
2023-05-17T04:57:05.113Z,94573.00
2023-05-17T04:58:05.130Z,94569.00
2023-05-17T04:59:05.212Z,94577.00
2023-05-17T05:00:05.207Z,94577.00
2023-05-17T05:01:05.246Z,94583.00
2023-05-17T05:02:05.283Z,94585.00
2023-05-17T05:03:05.456Z,94579.00
2023-05-17T05:04:05.458Z,94579.00
2023-05-17T05:05:05.401Z,94581.00
2023-05-17T05:06:05.430Z,94585.00
2023-05-17T05:07:05.521Z,94587.00
2023-05-17T05:08:05.500Z,94587.00
2023-05-17T05:09:05.527Z,94589.00
2023-05-17T05:10:05.547Z,94589.00
2023-05-17T05:11:05.576Z,94587.00
2023-05-17T05:12:05.597Z,94591.00
2023-05-17T05:13:05.643Z,94589.00
2023-05-17T05:14:05.689Z,94593.00
2023-05-17T05:15:05.707Z,94591.00
2023-05-17T05:16:05.747Z,94595.00
2023-05-17T05:17:05.772Z,94591.00
2023-05-17T05:18:05.870Z,94595.00
2023-05-17T05:19:05.986Z,94593.00
2023-05-17T05:20:05.893Z,94596.00
2023-05-17T05:21:05.953Z,94595.00
2023-05-17T05:22:05.964Z,94596.00
2023-05-17T05:23:06.270Z,94596.00
2023-05-17T05:24:06.048Z,94596.00
2023-05-17T05:25:06.080Z,94596.00
2023-05-17T05:26:06.120Z,94598.00
2023-05-17T05:27:07.066Z,94595.00
2023-05-17T05:28:06.669Z,94602.00
2023-05-17T05:29:06.227Z,94602.00
2023-05-17T05:30:06.237Z,94602.00
2023-05-17T05:31:06.268Z,94604.00
2023-05-17T05:32:06.302Z,94604.00
2023-05-17T05:33:06.482Z,94606.00
2023-05-17T05:34:06.452Z,94606.00
2023-05-17T05:35:06.436Z,94608.00
2023-05-17T05:36:06.418Z,94606.00
2023-05-17T05:37:06.457Z,94608.00
2023-05-17T05:38:06.453Z,94614.00
2023-05-17T05:39:09.029Z,94614.00
2023-05-17T05:40:06.479Z,94620.00
2023-05-17T05:41:06.508Z,94624.00
2023-05-17T05:42:06.508Z,94626.00
2023-05-17T05:43:06.466Z,94622.00
2023-05-17T05:44:06.458Z,94626.00
2023-05-17T05:45:06.492Z,94624.00
2023-05-17T05:46:06.492Z,94628.00
2023-05-17T05:47:06.418Z,94628.00
2023-05-17T05:48:06.629Z,94632.00
2023-05-17T05:49:06.568Z,94630.00
2023-05-17T05:50:06.399Z,94630.00
2023-05-17T05:51:06.388Z,94630.00
2023-05-17T05:52:06.387Z,94630.00
2023-05-17T05:53:17.503Z,94634.00
2023-05-17T05:54:07.368Z,94642.00
2023-05-17T05:55:06.577Z,94642.00
2023-05-17T05:56:06.351Z,94642.00
2023-05-17T05:57:06.479Z,94642.00
2023-05-17T05:58:06.340Z,94644.00
2023-05-17T05:59:06.353Z,94644.00
2023-05-17T06:00:06.342Z,94642.00
2023-05-17T06:01:06.667Z,94634.00
2023-05-17T06:02:06.324Z,94642.00
2023-05-17T06:03:06.782Z,94642.00
2023-05-17T06:04:06.406Z,94642.00
2023-05-17T06:05:06.448Z,94644.00
2023-05-17T06:06:06.708Z,94648.00
2023-05-17T06:07:06.592Z,94646.00
2023-05-17T06:08:06.635Z,94649.00
2023-05-17T06:09:06.668Z,94648.00
2023-05-17T06:10:06.725Z,94649.00
2023-05-17T06:11:06.846Z,94649.00
2023-05-17T06:12:06.855Z,94649.00
2023-05-17T06:13:06.913Z,94648.00
2023-05-17T06:14:06.982Z,94649.00
2023-05-17T06:15:07.030Z,94648.00
2023-05-17T06:16:07.080Z,94646.00
2023-05-17T06:17:07.115Z,94648.00
2023-05-17T06:18:07.349Z,94648.00
2023-05-17T06:19:07.317Z,94651.00
2023-05-17T06:20:07.275Z,94651.00
2023-05-17T06:21:07.325Z,94653.00
2023-05-17T06:22:07.404Z,94653.00
2023-05-17T06:23:07.433Z,94657.00
2023-05-17T06:24:07.460Z,94657.00
2023-05-17T06:25:07.514Z,94659.00
2023-05-17T06:26:07.551Z,94661.00
2023-05-17T06:27:07.822Z,94657.00
2023-05-17T06:28:07.683Z,94657.00
2023-05-17T06:29:07.708Z,94649.00
2023-05-17T06:30:07.745Z,94649.00
2023-05-17T06:31:07.808Z,94651.00
2023-05-17T06:32:07.845Z,94651.00
2023-05-17T06:33:08.292Z,94651.00
2023-05-17T06:34:08.832Z,94655.00
2023-05-17T06:35:07.992Z,94657.00
2023-05-17T06:36:08.035Z,94653.00
2023-05-17T06:37:08.073Z,94659.00
2023-05-17T06:38:08.131Z,94663.00
2023-05-17T06:39:08.154Z,94663.00
2023-05-17T06:41:08.242Z,94663.00
2023-05-17T06:42:08.263Z,94665.00
2023-05-17T06:43:08.755Z,94667.00
2023-05-17T06:44:08.335Z,94673.00
2023-05-17T06:45:08.366Z,94673.00
2023-05-17T06:46:08.418Z,94673.00
2023-05-17T06:47:08.470Z,94673.00
2023-05-17T06:48:08.639Z,94673.00
2023-05-17T06:49:08.600Z,94673.00
2023-05-17T06:50:08.579Z,94669.00
2023-05-17T06:51:08.613Z,94669.00
2023-05-17T06:52:08.674Z,94671.00
2023-05-17T06:53:08.691Z,94675.00
2023-05-17T06:54:08.727Z,94675.00
2023-05-17T06:55:08.753Z,94675.00
2023-05-17T06:56:08.784Z,94679.00
2023-05-17T06:57:08.835Z,94683.00
2023-05-17T06:58:08.855Z,94683.00
2023-05-17T06:59:08.992Z,94685.00
2023-05-17T07:00:08.906Z,94687.00
2023-05-17T07:01:08.958Z,94687.00
2023-05-17T07:02:08.978Z,94689.00
2023-05-17T07:03:09.074Z,94689.00
2023-05-17T07:04:09.129Z,94689.00
2023-05-17T07:05:09.114Z,94691.00
2023-05-17T07:06:09.106Z,94693.00
2023-05-17T07:07:09.123Z,94695.00
2023-05-17T07:08:09.204Z,94695.00
2023-05-17T07:09:09.183Z,94695.00
2023-05-17T07:10:09.176Z,94696.00
2023-05-17T07:11:09.233Z,94698.00
2023-05-17T07:12:09.234Z,94698.00
2023-05-17T07:13:09.265Z,94704.00
2023-05-17T07:14:09.300Z,94706.00
2023-05-17T07:15:09.463Z,94704.00
2023-05-17T07:16:09.340Z,94704.00
2023-05-17T07:17:09.363Z,94706.00
2023-05-17T07:18:09.488Z,94710.00
2023-05-17T07:19:09.534Z,94710.00
2023-05-17T07:20:09.564Z,94710.00
2023-05-17T07:21:09.482Z,94710.00
2023-05-17T07:22:09.514Z,94712.00
2023-05-17T07:23:10.726Z,94712.00
2023-05-17T07:24:09.557Z,94702.00
2023-05-17T07:25:09.595Z,94706.00
2023-05-17T07:26:09.631Z,94702.00
2023-05-17T07:27:09.661Z,94702.00
2023-05-17T07:28:09.692Z,94702.00
2023-05-17T07:29:09.750Z,94704.00
2023-05-17T07:30:09.941Z,94702.00
2023-05-17T07:31:09.840Z,94702.00
2023-05-17T07:32:09.838Z,94702.00
2023-05-17T07:33:10.257Z,94706.00
2023-05-17T07:34:09.971Z,94706.00
2023-05-17T07:35:09.971Z,94710.00
2023-05-17T07:36:09.996Z,94710.00
2023-05-17T07:37:10.039Z,94712.00
2023-05-17T07:38:10.220Z,94706.00
2023-05-17T07:39:10.200Z,94710.00
2023-05-17T07:40:10.138Z,94708.00
2023-05-17T07:41:10.169Z,94708.00
2023-05-17T07:42:10.230Z,94708.00
2023-05-17T07:43:10.253Z,94712.00
2023-05-17T07:44:10.285Z,94712.00
2023-05-17T07:45:10.410Z,94712.00
2023-05-17T07:46:10.409Z,94708.00
2023-05-17T07:47:10.604Z,94710.00
2023-05-17T07:48:10.554Z,94710.00
2023-05-17T07:49:10.621Z,94712.00
2023-05-17T07:50:10.572Z,94712.00
2023-05-17T07:51:10.634Z,94708.00
2023-05-17T07:52:10.686Z,94706.00
2023-05-17T07:53:11.223Z,94708.00
2023-05-17T07:54:10.798Z,94710.00
2023-05-17T07:55:10.794Z,94710.00
2023-05-17T07:56:10.782Z,94714.00
2023-05-17T07:57:10.792Z,94714.00
2023-05-17T07:58:11.257Z,94718.00
2023-05-17T07:59:10.777Z,94716.00
2023-05-17T08:00:10.754Z,94716.00
2023-05-17T08:01:10.768Z,94716.00
2023-05-17T08:02:10.772Z,94716.00
2023-05-17T08:03:11.261Z,94718.00
2023-05-17T08:04:10.863Z,94714.00
2023-05-17T08:05:10.910Z,94718.00
2023-05-17T08:06:11.089Z,94720.00
2023-05-17T08:07:11.002Z,94716.00
2023-05-17T08:08:11.244Z,94714.00
2023-05-17T08:09:11.068Z,94714.00
2023-05-17T08:10:11.103Z,94714.00
2023-05-17T08:11:11.121Z,94716.00
2023-05-17T08:12:11.146Z,94716.00
2023-05-17T08:13:11.386Z,94720.00
2023-05-17T08:14:11.191Z,94720.00
2023-05-17T08:15:11.236Z,94722.00
2023-05-17T08:16:14.239Z,94724.00
2023-05-17T08:17:11.242Z,94724.00
2023-05-17T08:18:11.337Z,94724.00
2023-05-17T08:19:11.288Z,94726.00
2023-05-17T08:20:11.234Z,94730.00
2023-05-17T08:21:11.361Z,94728.00
2023-05-17T08:22:11.270Z,94730.00
2023-05-17T08:23:11.263Z,94728.00
2023-05-17T08:24:11.186Z,94730.00
2023-05-17T08:25:11.192Z,94732.00
2023-05-17T08:26:11.172Z,94732.00
2023-05-17T08:27:11.166Z,94736.00
2023-05-17T08:28:11.162Z,94736.00
2023-05-17T08:29:11.143Z,94736.00
2023-05-17T08:30:14.742Z,94734.00
2023-05-17T08:31:11.143Z,94738.00
2023-05-17T08:32:11.122Z,94736.00
2023-05-17T08:33:11.269Z,94740.00
2023-05-17T08:34:11.188Z,94738.00
2023-05-17T08:35:11.131Z,94742.00
2023-05-17T08:36:11.152Z,94736.00
2023-05-17T08:37:11.128Z,94743.00
2023-05-17T08:38:11.239Z,94743.00
2023-05-17T08:39:11.072Z,94747.00
2023-05-17T08:40:11.231Z,94745.00
2023-05-17T08:41:11.070Z,94747.00
2023-05-17T08:42:11.078Z,94749.00
2023-05-17T08:43:11.069Z,94747.00
2023-05-17T08:44:11.129Z,94753.00
2023-05-17T08:45:11.037Z,94753.00
2023-05-17T08:46:11.025Z,94753.00
2023-05-17T08:47:11.032Z,94751.00
2023-05-17T08:48:11.181Z,94753.00
2023-05-17T08:49:11.042Z,94755.00
2023-05-17T08:50:10.997Z,94759.00
2023-05-17T08:51:11.113Z,94755.00
2023-05-17T08:52:11.004Z,94759.00
2023-05-17T08:53:10.991Z,94757.00
2023-05-17T08:54:10.995Z,94763.00
2023-05-17T08:55:10.987Z,94765.00
2023-05-17T08:56:10.973Z,94767.00
2023-05-17T08:57:10.965Z,94765.00
2023-05-17T08:58:11.263Z,94767.00
2023-05-17T08:59:10.960Z,94771.00
2023-05-17T09:00:10.961Z,94769.00
2023-05-17T09:01:10.951Z,94769.00
2023-05-17T09:02:10.943Z,94771.00
2023-05-17T09:03:11.006Z,94773.00
2023-05-17T09:04:10.976Z,94777.00
2023-05-17T09:05:11.153Z,94783.00
2023-05-17T09:06:10.897Z,94783.00
2023-05-17T09:07:10.913Z,94783.00
2023-05-17T09:08:10.906Z,94785.00
2023-05-17T09:09:10.867Z,94789.00
2023-05-17T09:10:10.889Z,94791.00
2023-05-17T09:11:10.877Z,94789.00
2023-05-17T09:12:10.857Z,94791.00
2023-05-17T09:13:10.855Z,94787.00
2023-05-17T09:14:10.866Z,94789.00
2023-05-17T09:15:10.849Z,94787.00
2023-05-17T09:16:10.834Z,94791.00
2023-05-17T09:17:10.829Z,94793.00
2023-05-17T09:18:10.991Z,94794.00
2023-05-17T09:19:11.118Z,94794.00
2023-05-17T09:20:10.976Z,94798.00
2023-05-17T09:21:10.951Z,94798.00
2023-05-17T09:22:10.968Z,94800.00
2023-05-17T09:23:11.063Z,94804.00
2023-05-17T09:24:11.071Z,94810.00
2023-05-17T09:25:11.091Z,94796.00
2023-05-17T09:26:11.129Z,94806.00
2023-05-17T09:27:11.177Z,94802.00
2023-05-17T09:28:11.304Z,94808.00
2023-05-17T09:29:11.290Z,94806.00
2023-05-17T09:30:11.284Z,94804.00
2023-05-17T09:31:12.268Z,94806.00
2023-05-17T09:32:11.377Z,94808.00
2023-05-17T09:33:13.086Z,94814.00
2023-05-17T09:34:11.472Z,94814.00
2023-05-17T09:35:11.394Z,94810.00
2023-05-17T09:36:11.395Z,94810.00
2023-05-17T09:37:11.376Z,94808.00
2023-05-17T09:38:11.362Z,94808.00
2023-05-17T09:39:12.128Z,94808.00
2023-05-17T09:40:11.352Z,94810.00
2023-05-17T09:41:11.351Z,94816.00
2023-05-17T09:42:11.457Z,94818.00
2023-05-17T09:43:12.310Z,94816.00
2023-05-17T09:44:11.326Z,94814.00
2023-05-17T09:45:11.318Z,94814.00
2023-05-17T09:46:11.341Z,94816.00
2023-05-17T09:47:11.293Z,94818.00
2023-05-17T09:48:11.463Z,94816.00
2023-05-17T09:49:11.326Z,94818.00
2023-05-17T09:50:11.307Z,94822.00
2023-05-17T09:51:11.273Z,94822.00
2023-05-17T09:52:11.257Z,94826.00
2023-05-17T09:53:11.271Z,94824.00
2023-05-17T09:54:11.274Z,94824.00
2023-05-17T09:55:11.281Z,94822.00
2023-05-17T09:56:11.262Z,94826.00
2023-05-17T09:57:11.216Z,94826.00
2023-05-17T09:58:11.272Z,94826.00
2023-05-17T09:59:11.224Z,94824.00
2023-05-17T10:00:11.209Z,94824.00
2023-05-17T10:01:11.205Z,94820.00
2023-05-17T10:02:11.186Z,94822.00
2023-05-17T10:03:11.252Z,94818.00
2023-05-17T10:04:11.369Z,94816.00
2023-05-17T10:05:11.221Z,94812.00
2023-05-17T10:06:13.328Z,94816.00
2023-05-17T10:07:12.175Z,94816.00
2023-05-17T10:08:11.161Z,94814.00
2023-05-17T10:09:11.142Z,94814.00
2023-05-17T10:10:11.141Z,94816.00
2023-05-17T10:11:11.138Z,94816.00
2023-05-17T10:12:11.129Z,94818.00
2023-05-17T10:13:11.122Z,94816.00
2023-05-17T10:14:11.124Z,94818.00
2023-05-17T10:15:11.175Z,94816.00
2023-05-17T10:16:11.198Z,94814.00
2023-05-17T10:17:11.255Z,94818.00
2023-05-17T10:18:11.405Z,94820.00
2023-05-17T10:19:11.478Z,94818.00
2023-05-17T10:20:11.479Z,94818.00
2023-05-17T10:21:11.496Z,94820.00
2023-05-17T10:23:12.789Z,94818.00
2023-05-17T10:24:11.533Z,94820.00
2023-05-17T10:25:11.512Z,94820.00
2023-05-17T10:26:11.486Z,94822.00
2023-05-17T10:27:11.491Z,94822.00
2023-05-17T10:28:11.491Z,94822.00
2023-05-17T10:29:11.478Z,94822.00
2023-05-17T10:30:11.493Z,94822.00
2023-05-17T10:31:11.451Z,94822.00
2023-05-17T10:32:11.546Z,94820.00
2023-05-17T10:33:11.898Z,94820.00
2023-05-17T10:34:11.834Z,94822.00
2023-05-17T10:35:12.368Z,94820.00
2023-05-17T10:36:11.687Z,94818.00
2023-05-17T10:37:11.715Z,94818.00
2023-05-17T10:38:11.790Z,94818.00
2023-05-17T10:39:11.811Z,94818.00
2023-05-17T10:40:11.859Z,94816.00
2023-05-17T10:41:11.904Z,94818.00
2023-05-17T10:42:15.189Z,94816.00
2023-05-17T10:43:11.928Z,94814.00
2023-05-17T10:44:11.930Z,94812.00
2023-05-17T10:45:11.933Z,94816.00
2023-05-17T10:46:11.921Z,94818.00
2023-05-17T10:47:11.925Z,94818.00
2023-05-17T10:48:12.010Z,94818.00
2023-05-17T10:49:11.965Z,94816.00
2023-05-17T10:50:11.904Z,94816.00
2023-05-17T10:51:11.900Z,94814.00
2023-05-17T10:52:11.887Z,94814.00
2023-05-17T10:53:11.882Z,94814.00
2023-05-17T10:54:11.984Z,94818.00
2023-05-17T10:55:11.862Z,94816.00
2023-05-17T10:56:11.874Z,94816.00
2023-05-17T10:57:11.886Z,94814.00
2023-05-17T10:58:11.855Z,94812.00
2023-05-17T10:59:11.845Z,94810.00
2023-05-17T11:00:11.859Z,94812.00
2023-05-17T11:01:11.827Z,94816.00
2023-05-17T11:02:11.825Z,94816.00
2023-05-17T11:03:11.892Z,94814.00
2023-05-17T11:04:11.859Z,94816.00
2023-05-17T11:05:11.947Z,94814.00
2023-05-17T11:06:19.359Z,94814.00
2023-05-17T11:07:13.315Z,94816.00
2023-05-17T11:08:11.816Z,94814.00
2023-05-17T11:09:11.763Z,94816.00
2023-05-17T11:10:11.775Z,94814.00
2023-05-17T11:11:11.818Z,94814.00
2023-05-17T11:12:11.780Z,94816.00
2023-05-17T11:13:11.857Z,94816.00
2023-05-17T11:14:11.759Z,94816.00
2023-05-17T11:15:11.767Z,94818.00
2023-05-17T11:16:11.833Z,94814.00
2023-05-17T11:17:12.316Z,94814.00
2023-05-17T11:18:22.431Z,94816.00
2023-05-17T11:19:12.977Z,94814.00
2023-05-17T11:20:13.804Z,94816.00
2023-05-17T11:21:11.868Z,94814.00
2023-05-17T11:22:11.843Z,94812.00
2023-05-17T11:23:11.821Z,94814.00
2023-05-17T11:24:11.828Z,94812.00
2023-05-17T11:25:11.869Z,94812.00
2023-05-17T11:26:16.091Z,94810.00
2023-05-17T11:27:11.950Z,94812.00
2023-05-17T11:28:11.902Z,94814.00
2023-05-17T11:29:11.920Z,94810.00
2023-05-17T11:30:11.912Z,94810.00
2023-05-17T11:31:12.111Z,94810.00
2023-05-17T11:32:11.899Z,94810.00
2023-05-17T11:33:21.006Z,94808.00
2023-05-17T11:34:12.958Z,94808.00
2023-05-17T11:35:11.874Z,94804.00
2023-05-17T11:36:11.843Z,94804.00
2023-05-17T11:37:11.844Z,94806.00
2023-05-17T11:38:11.835Z,94804.00
2023-05-17T11:39:11.841Z,94802.00
2023-05-17T11:40:11.822Z,94804.00
2023-05-17T11:41:16.145Z,94802.00
2023-05-17T11:42:12.820Z,94804.00
2023-05-17T11:43:11.814Z,94800.00
2023-05-17T11:44:11.792Z,94800.00
2023-05-17T11:45:11.815Z,94802.00
2023-05-17T11:46:11.790Z,94800.00
2023-05-17T11:47:11.938Z,94798.00